Terminal Aerodrome Forecast
Issued by NWS Wichita, KS

Home | Current Version | Previous Version | Graphics & Text | Print | Product List | Glossary On
Versions: 1 2 3 4 5 6 7 8 9 10 11 12 13 14 15 16 17 18 19 20 21 22 23 24 25
187
FTUS43 KICT 210524
TAFICT
TAF
KICT 210524Z 2106/2206 01011KT P6SM SCT120
     FM210800 02012KT P6SM BKN100
     FM211800 04012KT P6SM VCSH BKN120
     FM220000 05010KT 6SM -SN OVC030
     FM220200 05009KT 6SM -SNPL BR OVC025
     FM220400 05009KT 5SM -FZRA BR OVC015=

USA.gov is the U.S. government's official web portal to all federal, state and local government web resources and services.